Bezoek ook deze websites:

Template documentation
and downloads

And another site



METAR rapporten vliegvelden


Warning: A non-numeric value encountered in /home/w16454we/public_html/weather28/metar/metarDisplay.php on line 166

Warning: A non-numeric value encountered in /home/w16454we/public_html/weather28/metar/metarDisplay.php on line 166

Warning: A non-numeric value encountered in /home/w16454we/public_html/weather28/metar/metarDisplay.php on line 166

Warning: A non-numeric value encountered in /home/w16454we/public_html/weather28/metar/metarDisplay.php on line 166

Warning: A non-numeric value encountered in /home/w16454we/public_html/weather28/metar/metarDisplay.php on line 166
   
EHVK - Volkel Rnlafb, Netherlands
Afstand tot: ZW 18 km
Gewijzigd: 23-07-2021 17:55
Helder  
Helder  
   Wind: NNO 13 km/h
Wind: NNO 13 km/h
Temperatuur: 23°C
Dauwpunt: 14°C
Vochtigheid: 57%
Barometer: 1015 hPa
Bewolking: Helder
Zicht: meer dan 10 km
Bewolking: Helder
EHVK 231555Z AUTO 03007KT 350V100 9999 NCD 23/14 Q1015 BLU
EDLV - Niederrhein, Germany
Afstand tot: ZO 25 km
Gewijzigd: 23-07-2021 17:50
Helder  
Helder  
   Wind: Noorden 9.3 km/h
Wind: Noorden 9.3 km/h
Temperatuur: 23°C
Dauwpunt: 14°C
Vochtigheid: 57%
Barometer: 1015 hPa
Zicht: meer dan 10 km
Bewolking: Helder
EDLV 231550Z 01005KT 300V100 CAVOK 23/14 Q1015
EHDL - Deelen Rnlafb, Netherlands
Afstand tot: N 35 km
Gewijzigd: 23-07-2021 17:55
Gedeeltelijk bewolkt  
Gedeeltelijk bewolkt  
   Wind: ONO 14.8 km/h
Wind: ONO 14.8 km/h
Temperatuur: 21°C
Dauwpunt: 13°C
Vochtigheid: 60%
Barometer: 1016 hPa
Bewolking: Gedeeltelijk bewolkt
Zicht: meer dan 10 km
Bewolking: Gedeeltelijk bewolkt 2900 ft
EHDL 231555Z AUTO 06008KT 320V130 9999 SCT029 21/13 Q1016 BLU
EHEH - Eindhoven Rnlafb, Netherlands
Afstand tot: ZW 48 km
Gewijzigd: 23-07-2021 17:55
Helder  
Helder  
   Wind: NO 16.7 km/h
Wind: NO 16.7 km/h
Temperatuur: 24°C
Dauwpunt: 13°C
Vochtigheid: 50%
Barometer: 1015 hPa
Bewolking: Helder
Zicht: meer dan 10 km
Bewolking: Helder
EHEH 231555Z AUTO 05009KT 360V110 9999 NCD 24/13 Q1015 BLU NOSIG
EHGR - Gilze-Rijen Rnla, Netherlands
Afstand tot: WZW 70 km
Gewijzigd: 23-07-2021 17:55
Helder  
Helder  
   Wind: ONO 14.8 km/h
Wind: ONO 14.8 km/h
Temperatuur: 23°C
Dauwpunt: 13°C
Vochtigheid: 53%
Barometer: 1015 hPa
Bewolking: Helder
Zicht: meer dan 10 km
Bewolking: Helder
EHGR 231555Z AUTO 06008KT 340V110 9999 NCD 23/13 Q1015 BLU
EBBL - Kleine-Brogel(Ba, Belgium
Afstand tot: ZZW 71 km
Gewijzigd: 23-07-2021 17:55
Helder  
Helder  
   Wind: ONO 13 km/h
Wind: ONO 13 km/h
Temperatuur: 24°C
Dauwpunt: 10°C
Vochtigheid: 41%
Barometer: 1015 hPa
Bewolking: Helder
Zicht: meer dan 10 km
Bewolking: Helder
EBBL 231555Z AUTO 07007KT 9999 NCD 24/10 Q1015 BLU

Script ontwikkeld door  Saratoga-weather.org Aangepast voor de template door  Weerstation Leuven

U vindt ons ook hier:

Het Weer Aktueel

UK Metoffice

WeatherCloud

Weather Underground

AWEKAS

HAMweather, WeatherForYou, PWS Weather

Apparatuur in gebruik:

Weerstation
Davis Vantage Vue

Weerprogramma
Meteobridge

Davis Vantage Vue

Meteobridge